Thomson Spirit — 9HA2336 — position and weather

sailwx.info

Track history (hours):
 
Tides and Currents Weather Stations Pressure Air Temp Water Temp Dewpoint Dewpoint Depression Visibility Wind Speed Wind Dir Waves Ship Positions

Thomson Spirit

Last reported at 2016-Jun-29 21:34 UTC. Time now 2016-Jun-29 21:57 UTC.
Position N 40°26' E 002°00'.

Length 214 m; draft 8 m.

Type: Passenger vessel. MMSI: 248368000.

Date/timePositionNaut miles runAvg speedWind from/ knotsBaromVisibWave heightAir tempDewpointWater temp
2016-Jun-29 21:34N 40°26' E 002°00'1212.3
2016-Jun-29 20:33N 40°39' E 002°03'10 9.9
2016-Jun-29 19:33N 40°49' E 002°04'1010.0
2016-Jun-29 18:33N 40°58' E 002°07'1010.2
2016-Jun-29 17:33N 41°08' E 002°09'1110.2
2016-Jun-29 16:31N 41°19' E 002°10'3 0.5
2016-Jun-29 11:05N 41°22' E 002°11'0 0.0
2016-Jun-29 10:29N 41°22' E 002°11'4 0.6
2016-Jun-29 04:31N 41°18' E 002°11'1313.8
2016-Jun-29 03:33N 41°05' E 002°12'1515.2
2016-Jun-29 02:34N 40°50' E 002°12'1514.9
2016-Jun-29 01:33N 40°35' E 002°13'1514.7
2016-Jun-29 00:33N 40°20' E 002°13'1514.7
2016-Jun-28 23:33N 40°05' E 002°14'1514.6
2016-Jun-28 22:33N 39°51' E 002°15'1514.5
2016-Jun-28 21:33N 39°36' E 002°15'1414.1
2016-Jun-28 20:33N 39°25' E 002°27'1010.3
2016-Jun-28 19:33N 39°31' E 002°38'2 1.5
2016-Jun-28 18:29N 39°33' E 002°38'0 0.0
2016-Jun-28 17:32N 39°33' E 002°38'0 0.0
2016-Jun-28 16:32N 39°33' E 002°38'0 0.0
2016-Jun-28 15:32N 39°33' E 002°38'0 0.0
2016-Jun-28 14:32N 39°33' E 002°38'0 0.0
2016-Jun-28 13:31N 39°33' E 002°38'0 0.0
2016-Jun-28 12:31N 39°33' E 002°38'0 0.0
2016-Jun-28 11:32N 39°33' E 002°38'0 0.0
2016-Jun-28 10:32N 39°33' E 002°38'0 0.0
2016-Jun-28 09:31N 39°33' E 002°38'0 0.0
2016-Jun-28 08:32N 39°33' E 002°38'0 0.0
2016-Jun-28 07:32N 39°33' E 002°38'0 0.0
2016-Jun-28 06:32N 39°33' E 002°38'6 3.3
2016-Jun-28 04:33N 39°27' E 002°34'9 8.8
2016-Jun-28 03:33N 39°21' E 002°26'8 8.2
2016-Jun-28 02:33N 39°14' E 002°19'1110.5
2016-Jun-28 01:33N 39°06' E 002°11'1312.9
2016-Jun-28 00:33N 38°56' E 001°60'1312.7
2016-Jun-27 23:33N 38°47' E 001°49'1312.9
2016-Jun-27 22:32N 38°37' E 001°38'1413.1
2016-Jun-27 21:29N 38°28' E 001°24'2813.1
2016-Jun-27 19:20N 38°12' E 000°55'6212.9
2016-Jun-27 14:30N 37°35' W 000°09'1212.6
2016-Jun-27 13:33N 37°27' W 000°21'2512.4
2016-Jun-27 11:32N 37°13' W 000°46'1612.1
2016-Jun-27 10:15N 37°03' W 001°02'203 5.3
2016-Jun-25 20:22N 36°08' W 005°04'6 7.1
2016-Jun-25 19:33N 36°07' W 005°11'9 8.8
2016-Jun-25 18:33N 36°05' W 005°22'4 3.3
2016-Jun-25 17:28N 36°09' W 005°22'0 0.0
2016-Jun-25 16:29N 36°09' W 005°22'0 0.0
2016-Jun-25 15:29N 36°09' W 005°22'0 0.0
2016-Jun-25 14:31N 36°09' W 005°22'0 0.0
2016-Jun-25 13:28N 36°09' W 005°22'0 0.0
2016-Jun-25 08:32N 36°09' W 005°22'0 0.0
2016-Jun-25 07:07N 36°09' W 005°22'0 0.0
2016-Jun-25 06:26N 36°09' W 005°22'0 0.1
2016-Jun-25 05:33N 36°09' W 005°22'1010.4
2016-Jun-25 04:33N 35°59' W 005°25'116 4.0
2016-Jun-23 23:22N 34°43' W 007°13'2714.9
2016-Jun-23 21:33N 35°09' W 007°03'2115.3
2016-Jun-23 20:13N 35°29' W 006°57'1016.0
2016-Jun-23 19:33N 35°39' W 006°53'1615.6
2016-Jun-23 18:33N 35°54' W 006°48'1615.8
2016-Jun-23 17:33N 36°09' W 006°42'2015.6
2016-Jun-23 16:17N 36°26' W 006°31'70 3.7
2016-Jun-22 21:33N 36°53' W 007°52'7 7.3
2016-Jun-22 20:33N 36°53' W 008°01'7 7.4
2016-Jun-22 19:33N 36°52' W 008°10'7 7.3
2016-Jun-22 18:33N 36°51' W 008°19'13 5.2
2016-Jun-22 16:09N 36°59' W 008°32'6 7.2
2016-Jun-22 15:20N 37°05' W 008°32'3 1.3
2016-Jun-22 13:19N 37°08' W 008°32'0 0.0
2016-Jun-22 12:34N 37°08' W 008°32'0 0.0
2016-Jun-22 11:33N 37°08' W 008°32'0 0.0
2016-Jun-22 10:32N 37°08' W 008°32'0 0.0
2016-Jun-22 09:33N 37°08' W 008°32'0 0.0
2016-Jun-22 08:33N 37°08' W 008°32'0 0.0
2016-Jun-22 07:33N 37°08' W 008°32'0 0.0
2016-Jun-22 06:33N 37°08' W 008°32'0 0.0
2016-Jun-22 05:33N 37°08' W 008°32'2 1.7
2016-Jun-22 04:33N 37°06' W 008°32'2811.8
2016-Jun-22 02:08N 36°50' W 009°01'1912.1
2016-Jun-22 00:33N 37°06' W 009°15'1312.8
2016-Jun-21 23:33N 37°19' W 009°17'1313.1
2016-Jun-21 22:33N 37°32' W 009°20'1312.8
2016-Jun-21 21:33N 37°44' W 009°23'1313.0
2016-Jun-21 20:33N 37°57' W 009°26'1413.6
2016-Jun-21 19:32N 38°10' W 009°29'1313.4
2016-Jun-21 18:33N 38°23' W 009°32'1212.2
2016-Jun-21 17:33N 38°35' W 009°26'1212.4
2016-Jun-21 16:33N 38°41' W 009°13'4 4.2
2016-Jun-21 15:31N 38°43' W 009°07'0 0.0
2016-Jun-21 14:34N 38°43' W 009°07'0 0.0
2016-Jun-21 13:24N 38°43' W 009°07'0 0.0
2016-Jun-21 12:24N 38°43' W 009°07'0 0.0
2016-Jun-21 10:30N 38°43' W 009°07'0 0.0
2016-Jun-21 09:30N 38°43' W 009°07'0 0.0
2016-Jun-21 08:33N 38°43' W 009°07'0 0.0
2016-Jun-21 07:28N 38°43' W 009°07'5 2.4
2016-Jun-21 05:34N 38°41' W 009°13'1211.9
2016-Jun-21 04:33N 38°35' W 009°26'1313.4
2016-Jun-21 03:34N 38°22' W 009°32'1414.4
2016-Jun-21 02:33N 38°08' W 009°30'1414.3
2016-Jun-21 01:33N 37°54' W 009°28'1514.9
2016-Jun-21 00:33N 37°39' W 009°26'1514.4
2016-Jun-20 23:33N 37°25' W 009°24'1414.0
2016-Jun-20 22:33N 37°11' W 009°22'1414.1
2016-Jun-20 21:33N 36°57' W 009°20'8 8.5
2016-Jun-20 20:33N 36°49' W 009°15'8 7.9
2016-Jun-20 19:33N 36°44' W 009°08'8 7.8
2016-Jun-20 18:33N 36°43' W 008°58'8 8.0
2016-Jun-20 17:33N 36°44' W 008°48'8 7.9
2016-Jun-20 16:33N 36°44' W 008°38'8 7.9
2016-Jun-20 15:33N 36°44' W 008°29'8 8.0
2016-Jun-20 14:34N 36°44' W 008°19'8 8.0
2016-Jun-20 13:33N 36°44' W 008°09'8 7.8
2016-Jun-20 12:33N 36°43' W 007°59'8 7.9
2016-Jun-20 11:33N 36°43' W 007°49'8 7.9
2016-Jun-20 10:33N 36°43' W 007°39'1211.8
2016-Jun-20 09:32N 36°39' W 007°25'10212.7
2016-Jun-20 01:32N 36°00' W 005°28'1111.1
2016-Jun-20 00:34N 36°05' W 005°17'  
Track history (hours):
 
Tides and Currents Weather Stations Pressure Air Temp Water Temp Dewpoint Dewpoint Depression Visibility Wind Speed Wind Dir Waves Ship Positions

Thomson Spirit

Last reported at 2016-Jun-29 21:34 UTC. Time now 2016-Jun-29 21:57 UTC.
Position N 40°26' E 002°00'.

Length 214 m; draft 8 m.

Type: Passenger vessel. MMSI: 248368000.

Date/timePositionNaut miles runAvg speedWind from/ knotsBaromVisibWave heightAir tempDewpointWater temp
2016-Jun-29 21:34N 40°26' E 002°00'1212.3
2016-Jun-29 20:33N 40°39' E 002°03'10 9.9
2016-Jun-29 19:33N 40°49' E 002°04'1010.0
2016-Jun-29 18:33N 40°58' E 002°07'1010.2
2016-Jun-29 17:33N 41°08' E 002°09'1110.2
2016-Jun-29 16:31N 41°19' E 002°10'3 0.5
2016-Jun-29 11:05N 41°22' E 002°11'0 0.0
2016-Jun-29 10:29N 41°22' E 002°11'4 0.6
2016-Jun-29 04:31N 41°18' E 002°11'1313.8
2016-Jun-29 03:33N 41°05' E 002°12'1515.2
2016-Jun-29 02:34N 40°50' E 002°12'1514.9
2016-Jun-29 01:33N 40°35' E 002°13'1514.7
2016-Jun-29 00:33N 40°20' E 002°13'1514.7
2016-Jun-28 23:33N 40°05' E 002°14'1514.6
2016-Jun-28 22:33N 39°51' E 002°15'1514.5
2016-Jun-28 21:33N 39°36' E 002°15'1414.1
2016-Jun-28 20:33N 39°25' E 002°27'1010.3
2016-Jun-28 19:33N 39°31' E 002°38'2 1.5
2016-Jun-28 18:29N 39°33' E 002°38'0 0.0
2016-Jun-28 17:32N 39°33' E 002°38'0 0.0
2016-Jun-28 16:32N 39°33' E 002°38'0 0.0
2016-Jun-28 15:32N 39°33' E 002°38'0 0.0
2016-Jun-28 14:32N 39°33' E 002°38'0 0.0
2016-Jun-28 13:31N 39°33' E 002°38'0 0.0
2016-Jun-28 12:31N 39°33' E 002°38'0 0.0
2016-Jun-28 11:32N 39°33' E 002°38'0 0.0
2016-Jun-28 10:32N 39°33' E 002°38'0 0.0
2016-Jun-28 09:31N 39°33' E 002°38'0 0.0
2016-Jun-28 08:32N 39°33' E 002°38'0 0.0
2016-Jun-28 07:32N 39°33' E 002°38'0 0.0
2016-Jun-28 06:32N 39°33' E 002°38'6 3.3
2016-Jun-28 04:33N 39°27' E 002°34'9 8.8
2016-Jun-28 03:33N 39°21' E 002°26'8 8.2
2016-Jun-28 02:33N 39°14' E 002°19'1110.5
2016-Jun-28 01:33N 39°06' E 002°11'1312.9
2016-Jun-28 00:33N 38°56' E 001°60'1312.7
2016-Jun-27 23:33N 38°47' E 001°49'1312.9
2016-Jun-27 22:32N 38°37' E 001°38'1413.1
2016-Jun-27 21:29N 38°28' E 001°24'2813.1
2016-Jun-27 19:20N 38°12' E 000°55'6212.9
2016-Jun-27 14:30N 37°35' W 000°09'1212.6
2016-Jun-27 13:33N 37°27' W 000°21'2512.4
2016-Jun-27 11:32N 37°13' W 000°46'1612.1
2016-Jun-27 10:15N 37°03' W 001°02'203 5.3
2016-Jun-25 20:22N 36°08' W 005°04'6 7.1
2016-Jun-25 19:33N 36°07' W 005°11'9 8.8
2016-Jun-25 18:33N 36°05' W 005°22'4 3.3
2016-Jun-25 17:28N 36°09' W 005°22'0 0.0
2016-Jun-25 16:29N 36°09' W 005°22'0 0.0
2016-Jun-25 15:29N 36°09' W 005°22'0 0.0
2016-Jun-25 14:31N 36°09' W 005°22'0 0.0
2016-Jun-25 13:28N 36°09' W 005°22'0 0.0
2016-Jun-25 08:32N 36°09' W 005°22'0 0.0
2016-Jun-25 07:07N 36°09' W 005°22'0 0.0
2016-Jun-25 06:26N 36°09' W 005°22'0 0.1
2016-Jun-25 05:33N 36°09' W 005°22'1010.4
2016-Jun-25 04:33N 35°59' W 005°25'116 4.0
2016-Jun-23 23:22N 34°43' W 007°13'2714.9
2016-Jun-23 21:33N 35°09' W 007°03'2115.3
2016-Jun-23 20:13N 35°29' W 006°57'1016.0
2016-Jun-23 19:33N 35°39' W 006°53'1615.6
2016-Jun-23 18:33N 35°54' W 006°48'1615.8
2016-Jun-23 17:33N 36°09' W 006°42'2015.6
2016-Jun-23 16:17N 36°26' W 006°31'70 3.7
2016-Jun-22 21:33N 36°53' W 007°52'7 7.3
2016-Jun-22 20:33N 36°53' W 008°01'7 7.4
2016-Jun-22 19:33N 36°52' W 008°10'7 7.3
2016-Jun-22 18:33N 36°51' W 008°19'13 5.2
2016-Jun-22 16:09N 36°59' W 008°32'6 7.2
2016-Jun-22 15:20N 37°05' W 008°32'3 1.3
2016-Jun-22 13:19N 37°08' W 008°32'0 0.0
2016-Jun-22 12:34N 37°08' W 008°32'0 0.0
2016-Jun-22 11:33N 37°08' W 008°32'0 0.0
2016-Jun-22 10:32N 37°08' W 008°32'0 0.0
2016-Jun-22 09:33N 37°08' W 008°32'0 0.0
2016-Jun-22 08:33N 37°08' W 008°32'0 0.0
2016-Jun-22 07:33N 37°08' W 008°32'0 0.0
2016-Jun-22 06:33N 37°08' W 008°32'0 0.0
2016-Jun-22 05:33N 37°08' W 008°32'2 1.7
2016-Jun-22 04:33N 37°06' W 008°32'2811.8
2016-Jun-22 02:08N 36°50' W 009°01'1912.1
2016-Jun-22 00:33N 37°06' W 009°15'1312.8
2016-Jun-21 23:33N 37°19' W 009°17'1313.1
2016-Jun-21 22:33N 37°32' W 009°20'1312.8
2016-Jun-21 21:33N 37°44' W 009°23'1313.0
2016-Jun-21 20:33N 37°57' W 009°26'1413.6
2016-Jun-21 19:32N 38°10' W 009°29'1313.4
2016-Jun-21 18:33N 38°23' W 009°32'1212.2
2016-Jun-21 17:33N 38°35' W 009°26'1212.4
2016-Jun-21 16:33N 38°41' W 009°13'4 4.2
2016-Jun-21 15:31N 38°43' W 009°07'0 0.0
2016-Jun-21 14:34N 38°43' W 009°07'0 0.0
2016-Jun-21 13:24N 38°43' W 009°07'0 0.0
2016-Jun-21 12:24N 38°43' W 009°07'0 0.0
2016-Jun-21 10:30N 38°43' W 009°07'0 0.0
2016-Jun-21 09:30N 38°43' W 009°07'0 0.0
2016-Jun-21 08:33N 38°43' W 009°07'0 0.0
2016-Jun-21 07:28N 38°43' W 009°07'5 2.4
2016-Jun-21 05:34N 38°41' W 009°13'1211.9
2016-Jun-21 04:33N 38°35' W 009°26'1313.4
2016-Jun-21 03:34N 38°22' W 009°32'1414.4
2016-Jun-21 02:33N 38°08' W 009°30'1414.3
2016-Jun-21 01:33N 37°54' W 009°28'1514.9
2016-Jun-21 00:33N 37°39' W 009°26'1514.4
2016-Jun-20 23:33N 37°25' W 009°24'1414.0
2016-Jun-20 22:33N 37°11' W 009°22'1414.1
2016-Jun-20 21:33N 36°57' W 009°20'8 8.5
2016-Jun-20 20:33N 36°49' W 009°15'8 7.9
2016-Jun-20 19:33N 36°44' W 009°08'8 7.8
2016-Jun-20 18:33N 36°43' W 008°58'8 8.0
2016-Jun-20 17:33N 36°44' W 008°48'8 7.9
2016-Jun-20 16:33N 36°44' W 008°38'8 7.9
2016-Jun-20 15:33N 36°44' W 008°29'8 8.0
2016-Jun-20 14:34N 36°44' W 008°19'8 8.0
2016-Jun-20 13:33N 36°44' W 008°09'8 7.8
2016-Jun-20 12:33N 36°43' W 007°59'8 7.9
2016-Jun-20 11:33N 36°43' W 007°49'8 7.9
2016-Jun-20 10:33N 36°43' W 007°39'1211.8
2016-Jun-20 09:32N 36°39' W 007°25'10212.7
2016-Jun-20 01:32N 36°00' W 005°28'1111.1
2016-Jun-20 00:34N 36°05' W 005°17'  

Dump ship's entire track history